Time;durP1;ratioP1;P1;durP2;ratioP2;P2;SDS_P1;SDS_P2;PMS_P1;PMS_P2;Temp;Humidity;BMP_temperature;BMP_pressure;BME280_temperature;BME280_humidity;BME280_pressure;Samples;Min_cycle;Max_cycle;Signal;HPM_P1;HPM_P2
2021/09/25 00:02:21;;;;;;;3.98;1.37;;;;;;;10.51;100.00;98448.70;1777739;79;20975;-70
2021/09/25 00:04:57;;;;;;;4.87;1.60;;;;;;;10.46;100.00;98456.28;1756059;79;21478;-71
2021/09/25 00:08:00;;;;;;;3.22;1.50;;;;;;;10.42;100.00;98461.18;1783755;80;21470;-69
2021/09/25 00:10:33;;;;;;;4.05;1.35;;;;;;;10.37;100.00;98473.95;1780783;79;21105;-70
2021/09/25 00:13:13;;;;;;;3.42;1.45;;;;;;;10.38;100.00;98471.74;1769690;80;20908;-70
2021/09/25 00:15:46;;;;;;;2.87;1.60;;;;;;;10.38;100.00;98468.23;1778815;80;21537;-70
2021/09/25 00:18:21;;;;;;;4.70;1.57;;;;;;;10.34;100.00;98475.32;1783589;80;21019;-71
2021/09/25 00:21:00;;;;;;;2.87;1.35;;;;;;;10.30;100.00;98472.31;1783632;80;20951;-71
2021/09/25 00:23:32;;;;;;;1.92;1.20;;;;;;;10.30;100.00;98479.34;1771071;80;21143;-69
2021/09/25 00:26:26;;;;;;;3.98;1.45;;;;;;;10.29;100.00;98463.98;1769203;79;21419;-70
2021/09/25 00:29:11;;;;;;;3.95;1.40;;;;;;;10.29;100.00;98464.42;1775489;80;21016;-70
2021/09/25 00:31:47;;;;;;;2.77;1.30;;;;;;;10.29;100.00;98458.70;1781598;79;20903;-71
2021/09/25 00:34:22;;;;;;;4.37;1.50;;;;;;;10.28;100.00;98466.20;1780728;80;21125;-72
2021/09/25 00:36:57;;;;;;;4.75;1.27;;;;;;;10.28;100.00;98467.96;1779809;80;21167;-71
2021/09/25 00:39:28;;;;;;;3.55;1.27;;;;;;;10.30;100.00;98462.22;1765097;79;20856;-70
2021/09/25 00:41:56;;;;;;;4.62;1.40;;;;;;;10.32;100.00;98464.38;1772159;80;21390;-70
2021/09/25 00:44:49;;;;;;;5.22;1.72;;;;;;;10.31;100.00;98464.83;1770167;79;21482;-71
2021/09/25 00:47:36;;;;;;;2.98;1.07;;;;;;;10.31;100.00;98466.59;1773300;79;21472;-71
2021/09/25 00:50:03;;;;;;;3.00;1.30;;;;;;;10.34;100.00;98476.64;1743356;80;21479;-71
2021/09/25 00:52:57;;;;;;;4.85;1.37;;;;;;;10.37;100.00;98473.08;1771522;80;21414;-71
2021/09/25 00:55:32;;;;;;;3.27;1.20;;;;;;;10.38;100.00;98478.33;1779817;80;21443;-71
2021/09/25 00:58:26;;;;;;;5.47;1.52;;;;;;;10.39;100.00;98477.44;1780397;80;20990;-71
2021/09/25 01:00:51;;;;;;;4.00;1.45;;;;;;;10.39;100.00;98476.56;1769989;79;21005;-70
2021/09/25 01:03:24;;;;;;;4.92;1.30;;;;;;;10.38;100.00;98480.97;1755404;80;21450;-71
2021/09/25 01:06:00;;;;;;;2.50;1.65;;;;;;;10.39;100.00;98476.12;1782412;80;20884;-70
2021/09/25 01:08:31;;;;;;;3.83;1.32;;;;;;;10.39;100.00;98480.07;1710471;83;21091;-70
2021/09/25 01:10:59;;;;;;;2.67;1.40;;;;;;;10.38;100.00;98474.83;1718456;82;20914;-71
2021/09/25 01:13:30;;;;;;;5.10;1.45;;;;;;;10.37;100.00;98494.17;1759761;79;20989;-71
2021/09/25 01:16:26;;;;;;;5.55;1.85;;;;;;;10.37;100.00;98496.36;1780404;80;21349;-71
2021/09/25 01:19:03;;;;;;;5.20;1.25;;;;;;;10.39;100.00;98486.66;1780724;79;21008;-71
2021/09/25 01:21:53;;;;;;;3.98;1.17;;;;;;;10.40;100.00;98491.48;1750530;79;20956;-71
2021/09/25 01:24:13;;;;;;;5.28;1.70;;;;;;;10.40;100.00;98495.44;1770904;80;21467;-71
2021/09/25 01:26:54;;;;;;;2.80;1.30;;;;;;;10.39;100.00;98494.57;1770002;79;21463;-69
2021/09/25 01:29:27;;;;;;;5.97;1.70;;;;;;;10.39;100.00;98492.38;1767422;79;21350;-70
2021/09/25 01:32:00;;;;;;;6.78;1.90;;;;;;;10.41;100.00;98495.90;1774168;79;21588;-70
2021/09/25 01:35:14;;;;;;;3.90;1.57;;;;;;;10.38;100.00;98500.74;1768556;79;20931;-71
2021/09/25 01:38:05;;;;;;;6.87;1.62;;;;;;;10.38;100.00;98499.87;1778433;80;21461;-72
2021/09/25 01:40:31;;;;;;;5.65;1.40;;;;;;;10.35;100.00;98496.83;1771503;80;21988;-70
2021/09/25 01:43:01;;;;;;;5.37;1.60;;;;;;;10.36;100.00;98481.44;1755898;79;22426;-70
2021/09/25 01:45:34;;;;;;;2.98;1.30;;;;;;;10.39;100.00;98481.84;1762917;80;20895;-71
2021/09/25 01:48:11;;;;;;;2.60;1.37;;;;;;;10.39;100.00;98482.70;1779224;80;20864;-72
2021/09/25 01:50:48;;;;;;;5.97;1.50;;;;;;;10.37;100.00;98495.05;1779846;80;21003;-70
2021/09/25 01:53:43;;;;;;;4.15;1.30;;;;;;;10.36;100.00;98492.43;1781219;80;20944;-70
2021/09/25 01:56:26;;;;;;;;;;;;;;;10.34;100.00;98503.45;1757946;80;21577;-71
2021/09/25 01:59:00;;;;;;;5.10;1.70;;;;;;;10.34;100.00;98501.69;1782562;79;20183;-70
2021/09/25 02:01:31;;;;;;;4.97;1.80;;;;;;;10.32;100.00;98505.23;1780253;80;20927;-71
2021/09/25 02:04:06;;;;;;;4.87;1.72;;;;;;;10.29;100.00;98510.56;1781243;80;21511;-71
2021/09/25 02:06:34;;;;;;;4.20;1.50;;;;;;;10.27;100.00;98517.63;1771644;80;20876;-70
2021/09/25 02:09:24;;;;;;;7.28;1.72;;;;;;;10.26;100.00;98517.19;1769435;79;21154;-72
2021/09/25 02:12:03;;;;;;;6.17;2.00;;;;;;;10.26;100.00;98527.30;1762654;80;21610;-70
2021/09/25 02:14:40;;;;;;;4.45;1.70;;;;;;;10.25;100.00;98532.14;1778587;79;20962;-72
2021/09/25 02:17:21;;;;;;;4.60;1.70;;;;;;;10.22;100.00;98534.82;1748816;80;20931;-72
2021/09/25 02:19:56;;;;;;;3.45;1.57;;;;;;;10.19;100.00;98530.00;1785542;79;20995;-70
2021/09/25 02:22:36;;;;;;;5.78;1.77;;;;;;;10.17;100.00;98532.67;1786682;80;20903;-70
2021/09/25 02:25:21;;;;;;;6.03;1.90;;;;;;;10.18;100.00;98537.48;1786285;80;20931;-70
2021/09/25 02:27:57;;;;;;;5.12;1.92;;;;;;;10.18;100.00;98541.00;1782608;79;21549;-70
2021/09/25 02:30:54;;;;;;;;;;;;;;;;;;;;;
2021/09/25 02:36:07;;;;;;;4.20;1.55;;;;;;;10.14;100.00;98553.80;1747211;80;21323;-71
2021/09/25 02:38:43;;;;;;;5.90;1.77;;;;;;;10.15;100.00;98547.63;1788000;80;20852;-70
2021/09/25 02:41:24;;;;;;;7.80;2.65;;;;;;;10.15;100.00;98549.39;1693165;84;21588;-70
2021/09/25 02:43:57;;;;;;;4.75;2.20;;;;;;;10.10;100.00;98552.97;1692774;84;20962;-71
2021/09/25 02:46:32;;;;;;;6.90;2.25;;;;;;;10.08;100.00;98558.70;1718858;80;20875;-70
2021/09/25 02:49:05;;;;;;;4.62;2.05;;;;;;;10.06;100.00;98559.17;1788955;80;21137;-70
2021/09/25 02:51:36;;;;;;;6.95;2.05;;;;;;;10.07;100.00;98556.09;1767506;79;20859;-70
2021/09/25 02:54:04;;;;;;;7.62;2.33;;;;;;;10.05;100.00;98561.83;1771372;79;20982;-71
2021/09/25 02:56:37;;;;;;;6.33;2.10;;;;;;;10.05;100.00;98561.83;1782098;79;20965;-71
2021/09/25 02:59:07;;;;;;;7.92;2.20;;;;;;;10.03;100.00;98567.56;1773457;79;20918;-72
2021/09/25 03:01:35;;;;;;;4.87;2.10;;;;;;;10.03;100.00;98577.66;1775818;79;21125;-71
2021/09/25 03:04:04;;;;;;;7.00;2.37;;;;;;;10.06;100.00;98583.33;1788972;79;20961;-71
2021/09/25 03:06:35;;;;;;;6.47;2.72;;;;;;;10.06;100.00;98585.52;1789278;79;20958;-69
2021/09/25 03:09:03;;;;;;;7.92;3.02;;;;;;;10.05;100.00;98597.40;1789171;79;21021;-70
2021/09/25 03:11:31;;;;;;;6.37;2.72;;;;;;;10.04;100.00;98591.70;1784287;79;21045;-70
2021/09/25 03:13:59;;;;;;;8.68;2.52;;;;;;;10.01;100.00;98595.25;1771054;79;21150;-70
2021/09/25 03:16:29;;;;;;;6.62;2.40;;;;;;;10.03;100.00;98593.47;1768337;79;20884;-71
2021/09/25 03:19:06;;;;;;;6.28;2.27;;;;;;;10.03;100.00;98595.23;1759971;80;21407;-70
2021/09/25 03:21:38;;;;;;;5.67;2.15;;;;;;;10.02;100.00;98600.95;1756949;80;21455;-70
2021/09/25 03:24:09;;;;;;;5.42;2.15;;;;;;;10.01;100.00;98607.55;1763919;80;20883;-70
2021/09/25 03:26:46;;;;;;;7.30;2.30;;;;;;;10.00;100.00;98611.95;1767592;80;21162;-70
2021/09/25 03:29:19;;;;;;;5.72;2.20;;;;;;;10.02;100.00;98614.56;1773579;80;21506;-70
2021/09/25 03:32:00;;;;;;;8.73;2.50;;;;;;;10.00;100.00;98619.86;1775063;80;20995;-69
2021/09/25 03:34:32;;;;;;;7.33;2.43;;;;;;;9.97;100.00;98619.02;1744007;81;21050;-69
2021/09/25 03:37:05;;;;;;;7.80;2.70;;;;;;;9.92;100.00;98622.13;1750805;80;21705;-69
2021/09/25 03:39:35;;;;;;;6.12;2.75;;;;;;;9.92;100.00;98627.39;1760522;80;21149;-70
2021/09/25 03:42:06;;;;;;;6.08;2.58;;;;;;;9.93;100.00;98630.45;1764711;79;21029;-70
2021/09/25 03:44:35;;;;;;;5.40;2.45;;;;;;;9.94;100.00;98632.23;1771387;80;21565;-69
2021/09/25 03:47:04;;;;;;;7.15;2.70;;;;;;;9.93;100.00;98639.67;1775010;80;21065;-69
2021/09/25 03:49:46;;;;;;;;;;;;;;;;;;;;;
2021/09/25 03:52:09;;;;;;;5.45;1.95;;;;;;;9.87;100.00;98659.50;1772022;80;22256;-68
2021/09/25 03:54:37;;;;;;;5.35;2.15;;;;;;;9.88;100.00;98663.44;1762859;80;21039;-68
2021/09/25 03:57:08;;;;;;;6.65;2.72;;;;;;;9.88;100.00;98670.47;1774168;80;21014;-69
2021/09/25 03:59:39;;;;;;;7.58;2.35;;;;;;;9.86;100.00;98680.16;1748607;80;21528;-69
2021/09/25 04:02:08;;;;;;;7.70;3.00;;;;;;;9.82;100.00;98685.02;1768768;79;21529;-69
2021/09/25 04:04:36;;;;;;;7.90;2.50;;;;;;;9.80;100.00;98682.41;1779522;79;21095;-69
2021/09/25 04:07:04;;;;;;;9.88;2.85;;;;;;;9.79;100.00;98687.25;1768480;80;20907;-72
2021/09/25 04:09:32;;;;;;;5.65;2.60;;;;;;;9.77;100.00;98689.02;1760226;80;20976;-69
2021/09/25 04:12:01;;;;;;;11.00;3.47;;;;;;;9.75;100.00;98689.04;1769334;80;21462;-70
2021/09/25 04:14:28;;;;;;;10.63;2.52;;;;;;;9.73;100.00;98697.84;1775378;80;21007;-70
2021/09/25 04:16:56;;;;;;;7.05;2.67;;;;;;;9.69;100.00;98697.45;1774633;80;21049;-72
2021/09/25 04:19:29;;;;;;;7.53;3.05;;;;;;;9.69;100.00;98694.81;1766199;80;21048;-71
2021/09/25 04:22:06;;;;;;;12.55;3.45;;;;;;;9.69;100.00;98697.01;1775588;80;21430;-71
2021/09/25 04:24:34;;;;;;;7.33;2.60;;;;;;;9.69;100.00;98704.03;1775358;80;20983;-70
2021/09/25 04:27:04;;;;;;;7.30;2.90;;;;;;;9.69;100.00;98708.86;1765900;80;21034;-70
2021/09/25 04:29:31;;;;;;;12.35;2.70;;;;;;;9.70;100.00;98713.68;1768258;80;21145;-70
2021/09/25 04:32:03;;;;;;;7.33;3.27;;;;;;;9.70;100.00;98712.36;1772869;80;21058;-71
2021/09/25 04:34:32;;;;;;;6.92;3.00;;;;;;;9.73;100.00;98722.88;1775191;80;20989;-71
2021/09/25 04:37:11;;;;;;;9.73;3.10;;;;;;;9.76;100.00;98724.16;1765488;80;20919;-70
2021/09/25 04:39:41;;;;;;;9.05;3.27;;;;;;;9.78;100.00;98724.57;1760183;80;21076;-71
2021/09/25 04:42:15;;;;;;;7.12;2.95;;;;;;;9.82;100.00;98728.48;1772877;80;21528;-70
2021/09/25 04:44:44;;;;;;;14.25;3.80;;;;;;;9.86;100.00;98735.03;1774313;80;21018;-70
2021/09/25 04:47:14;;;;;;;;;;;;;;;9.89;100.00;98732.81;1772304;80;21506;-70
2021/09/25 04:49:42;;;;;;;9.55;3.25;;;;;;;9.92;100.00;98737.60;1763929;80;20095;-70
2021/09/25 04:52:12;;;;;;;9.00;3.05;;;;;;;9.94;100.00;98742.89;1766458;80;21062;-71
2021/09/25 04:54:40;;;;;;;14.28;3.45;;;;;;;9.96;100.00;98755.16;1766613;80;21173;-70
2021/09/25 04:57:08;;;;;;;11.38;3.33;;;;;;;10.01;100.00;98754.67;1773232;80;20884;-71
2021/09/25 04:59:38;;;;;;;9.18;3.45;;;;;;;10.08;100.00;98758.98;1765233;80;20848;-71
2021/09/25 05:02:05;;;;;;;10.45;3.65;;;;;;;10.12;100.00;98761.59;1760300;80;20884;-70
2021/09/25 05:04:33;;;;;;;9.73;3.62;;;;;;;10.14;100.00;98763.77;1760220;80;21454;-71
2021/09/25 05:07:01;;;;;;;8.65;3.10;;;;;;;10.16;100.00;98761.98;1760012;80;21103;-70
2021/09/25 05:09:29;;;;;;;8.00;3.72;;;;;;;10.20;100.00;98772.52;1760985;80;21503;-71
2021/09/25 05:11:57;;;;;;;10.85;3.42;;;;;;;10.24;100.00;98774.67;1760099;80;21427;-71
2021/09/25 05:14:25;;;;;;;8.98;3.75;;;;;;;10.24;100.00;98777.30;1760144;80;20970;-71
2021/09/25 05:16:53;;;;;;;10.08;3.80;;;;;;;10.23;100.00;98781.70;1771476;80;20983;-70
2021/09/25 05:19:22;;;;;;;10.32;3.40;;;;;;;10.23;100.00;98791.38;1780671;79;21148;-71
2021/09/25 05:21:51;;;;;;;10.38;3.75;;;;;;;10.26;100.00;98793.53;1772350;79;20963;-72
2021/09/25 05:24:22;;;;;;;7.85;3.47;;;;;;;10.28;100.00;98788.24;1771194;79;20887;-73
2021/09/25 05:26:51;;;;;;;7.42;3.60;;;;;;;10.29;100.00;98804.48;1778796;79;20967;-73
2021/09/25 05:29:19;;;;;;;10.82;4.30;;;;;;;10.27;100.00;98803.63;1778631;80;21510;-71
2021/09/25 05:31:47;;;;;;;9.28;3.70;;;;;;;10.26;100.00;98801.88;1783139;80;21823;-71
2021/09/25 05:34:14;;;;;;;8.60;3.98;;;;;;;10.24;100.00;98807.17;1772413;79;21445;-70
2021/09/25 05:36:43;;;;;;;9.05;3.20;;;;;;;10.28;100.00;98810.20;1771103;79;22088;-71
2021/09/25 05:39:20;;;;;;;9.43;3.77;;;;;;;10.29;100.00;98808.00;1772074;79;21469;-70
2021/09/25 05:41:49;;;;;;;9.55;3.30;;;;;;;10.35;100.00;98816.28;1780538;79;21086;-71
2021/09/25 05:44:17;;;;;;;11.33;4.28;;;;;;;10.39;100.00;98818.88;1783799;80;21146;-73
2021/09/25 05:46:45;;;;;;;6.78;3.42;;;;;;;10.43;100.00;98818.42;1783736;79;20915;-73
2021/09/25 05:49:12;;;;;;;11.08;3.62;;;;;;;10.50;100.00;98817.91;1783699;80;20967;-73
2021/09/25 05:51:40;;;;;;;8.38;3.08;;;;;;;10.56;100.00;98822.67;1774809;79;20916;-73
2021/09/25 05:54:08;;;;;;;10.85;3.62;;;;;;;10.61;100.00;98816.90;1768495;79;20974;-74
2021/09/25 05:56:36;;;;;;;6.97;3.10;;;;;;;10.68;100.00;98830.89;1779182;79;21158;-74
2021/09/25 05:59:05;;;;;;;8.48;3.35;;;;;;;10.71;100.00;98830.41;1778810;79;20892;-71
2021/09/25 06:01:36;;;;;;;9.95;3.42;;;;;;;10.77;100.00;98832.55;1768705;79;21489;-71
2021/09/25 06:04:05;;;;;;;9.58;3.50;;;;;;;10.83;100.00;98837.30;1783856;79;20879;-72
2021/09/25 06:06:33;;;;;;;8.40;3.47;;;;;;;10.89;100.00;98841.22;1783692;79;21000;-72
2021/09/25 06:09:00;;;;;;;10.40;3.60;;;;;;;10.95;100.00;98846.86;1776574;79;21140;-71
2021/09/25 06:11:28;;;;;;;8.48;2.98;;;;;;;11.02;100.00;98843.25;1778866;79;20868;-69
2021/09/25 06:13:59;;;;;;;8.78;2.90;;;;;;;11.07;100.00;98845.39;1782745;80;20897;-73
2021/09/25 06:16:33;;;;;;;7.80;2.67;;;;;;;11.15;100.00;98850.11;1754824;80;20907;-72
2021/09/25 06:19:01;;;;;;;8.73;3.47;;;;;;;11.24;100.00;98856.59;1744447;82;20852;-70
2021/09/25 06:21:30;;;;;;;9.38;3.40;;;;;;;11.32;100.00;98861.77;1754788;80;21168;-71
2021/09/25 06:23:57;;;;;;;6.75;3.20;;;;;;;11.38;100.00;98857.75;1773824;80;20837;-70
2021/09/25 06:26:25;;;;;;;9.83;2.72;;;;;;;11.45;100.00;98873.94;1775344;80;20900;-71
2021/09/25 06:28:53;;;;;;;11.68;3.33;;;;;;;11.50;100.00;98876.06;1772099;80;20929;-74
2021/09/25 06:31:22;;;;;;;7.97;2.75;;;;;;;11.59;100.00;98885.63;1696072;83;20996;-71
2021/09/25 06:33:50;;;;;;;8.10;2.83;;;;;;;11.69;100.00;98879.31;1690628;84;21187;-71
2021/09/25 06:36:19;;;;;;;8.55;3.58;;;;;;;11.80;100.00;98891.95;1758976;80;21565;-70
2021/09/25 06:38:47;;;;;;;9.68;3.80;;;;;;;11.91;100.00;98897.09;1697132;83;21445;-70
2021/09/25 06:41:17;;;;;;;9.50;3.90;;;;;;;11.99;100.00;98893.88;1773136;80;20940;-69
2021/09/25 06:43:46;;;;;;;12.78;3.52;;;;;;;12.03;100.00;98900.87;1699946;83;21068;-71
2021/09/25 06:46:15;;;;;;;7.60;2.83;;;;;;;12.07;100.00;98905.66;1729880;82;21863;-71
2021/09/25 06:48:43;;;;;;;11.38;3.17;;;;;;;12.08;100.00;98908.73;1765272;80;20932;-71
2021/09/25 06:51:13;;;;;;;10.48;3.20;;;;;;;12.13;100.00;98907.75;1747384;80;20942;-72
2021/09/25 06:53:40;;;;;;;8.58;3.33;;;;;;;12.20;100.00;98908.52;1766452;80;20979;-71
2021/09/25 06:56:10;;;;;;;8.23;2.92;;;;;;;12.23;100.00;98911.12;1758545;80;21549;-71
2021/09/25 06:58:41;;;;;;;13.13;2.92;;;;;;;12.27;100.00;98918.09;1760632;80;21162;-70
2021/09/25 07:01:09;;;;;;;11.22;2.77;;;;;;;12.33;100.00;98915.83;1762126;80;21542;-70
2021/09/25 07:03:38;;;;;;;9.20;2.80;;;;;;;12.41;100.00;98921.42;1765091;80;20972;-70
2021/09/25 07:06:08;;;;;;;8.63;2.92;;;;;;;12.51;100.00;98924.77;1761352;80;20951;-70
2021/09/25 07:08:35;;;;;;;13.08;3.02;;;;;;;12.63;100.00;98920.59;1772401;80;20912;-71
2021/09/25 07:11:04;;;;;;;7.75;2.67;;;;;;;12.73;100.00;98927.45;1761023;80;21818;-71
2021/09/25 07:13:32;;;;;;;6.50;2.70;;;;;;;12.83;100.00;98920.25;1758518;80;20878;-70
2021/09/25 07:16:03;;;;;;;9.93;3.15;;;;;;;12.94;100.00;98920.91;1766546;80;21505;-70
2021/09/25 07:18:31;;;;;;;8.20;2.87;;;;;;;13.05;100.00;98926.00;1776777;79;20958;-71
2021/09/25 07:20:59;;;;;;;6.83;2.60;;;;;;;13.15;100.00;98923.14;1760296;79;21039;-72
2021/09/25 07:23:27;;;;;;;10.43;3.20;;;;;;;13.27;100.00;98930.03;1746855;80;21146;-71
2021/09/25 07:25:54;;;;;;;10.72;2.77;;;;;;;13.37;100.00;98935.55;1773358;79;20863;-64
2021/09/25 07:28:23;;;;;;;9.10;2.80;;;;;;;13.47;100.00;98933.58;1779588;79;20951;-65
2021/09/25 07:30:51;;;;;;;7.17;2.72;;;;;;;13.59;100.00;98937.30;1773536;79;20972;-71
2021/09/25 07:33:20;;;;;;;12.65;2.65;;;;;;;13.68;100.00;98934.44;1753291;79;21024;-70
2021/09/25 07:35:49;;;;;;;8.88;2.67;;;;;;;13.79;100.00;98931.58;1744630;81;21193;-71
2021/09/25 07:38:21;;;;;;;9.93;2.50;;;;;;;13.90;100.00;98926.91;1743612;81;21012;-73
2021/09/25 07:40:52;;;;;;;10.08;3.00;;;;;;;14.00;100.00;98929.76;1749702;81;20984;-73
2021/09/25 07:43:19;;;;;;;8.88;3.02;;;;;;;14.10;100.00;98932.61;1750034;81;21633;-71
2021/09/25 07:45:47;;;;;;;12.25;3.08;;;;;;;14.21;100.00;98927.08;1749803;81;20917;-63
2021/09/25 07:48:16;;;;;;;10.72;2.87;;;;;;;14.37;100.00;98928.90;1755582;80;21104;-69
2021/09/25 07:50:45;;;;;;;11.68;3.27;;;;;;;14.49;100.00;98933.48;1763970;80;20882;-69
2021/09/25 07:53:14;;;;;;;9.70;3.10;;;;;;;14.63;100.00;98929.14;1747247;81;21003;-70
2021/09/25 07:55:42;;;;;;;8.00;2.52;;;;;;;14.75;100.00;98929.30;1749697;81;20929;-69
2021/09/25 07:58:12;;;;;;;7.45;2.50;;;;;;;14.89;100.00;98933.78;1748243;81;21495;-68
2021/09/25 08:00:41;;;;;;;9.65;3.15;;;;;;;15.01;100.00;98916.19;1734651;81;21357;-65
2021/09/25 08:03:09;;;;;;;11.25;2.60;;;;;;;15.11;100.00;98915.47;1741867;80;20921;-71
2021/09/25 08:05:37;;;;;;;12.47;2.40;;;;;;;15.19;100.00;98915.28;1745195;81;20940;-73
2021/09/25 08:08:09;;;;;;;11.10;2.30;;;;;;;15.29;100.00;98913.65;1743900;81;20955;-73
2021/09/25 08:10:36;;;;;;;6.70;2.27;;;;;;;15.40;100.00;98908.89;1774736;80;20949;-73
2021/09/25 08:13:04;;;;;;;9.95;2.17;;;;;;;15.55;100.00;98910.67;1761734;80;22101;-68
2021/09/25 08:15:32;;;;;;;13.50;2.90;;;;;;;15.64;100.00;98910.47;1748678;80;20995;-70
2021/09/25 08:18:00;;;;;;;8.38;2.80;;;;;;;15.72;100.00;98907.98;1733460;80;20966;-69
2021/09/25 08:20:28;;;;;;;7.22;2.10;;;;;;;15.84;100.00;98911.18;1767665;81;21010;-69
2021/09/25 08:22:57;;;;;;;11.12;2.42;;;;;;;15.96;100.00;98907.67;1768173;80;20937;-70
2021/09/25 08:25:26;;;;;;;12.93;2.60;;;;;;;16.02;100.00;98918.58;1768457;81;21154;-70
2021/09/25 08:27:56;;;;;;;8.00;2.40;;;;;;;16.08;100.00;98915.72;1768665;81;20948;-71
2021/09/25 08:30:25;;;;;;;8.40;2.60;;;;;;;16.16;100.00;98928.35;1765628;80;21497;-69
2021/09/25 08:32:53;;;;;;;8.00;2.22;;;;;;;16.25;100.00;98929.84;1764871;80;20924;-69
2021/09/25 08:35:22;;;;;;;8.00;1.70;;;;;;;16.30;100.00;98926.11;1760837;80;20896;-70
2021/09/25 08:37:49;;;;;;;8.73;2.58;;;;;;;16.32;100.00;98933.59;1760660;80;22269;-69
2021/09/25 08:40:21;;;;;;;7.33;2.27;;;;;;;16.33;100.00;98935.79;1761678;79;20998;-70
2021/09/25 08:42:47;;;;;;;11.30;2.35;;;;;;;16.34;100.00;98927.75;1762608;80;20860;-65
2021/09/25 08:45:14;;;;;;;9.38;2.50;;;;;;;16.38;100.00;98920.53;1766644;80;20948;-61
2021/09/25 08:47:42;;;;;;;9.28;2.50;;;;;;;16.38;100.00;98920.08;1753520;81;20955;-61
2021/09/25 08:50:12;;;;;;;10.60;2.75;;;;;;;16.41;100.00;98916.44;1768595;80;21127;-60
2021/09/25 08:52:40;;;;;;;11.08;3.08;;;;;;;16.38;100.00;98911.22;1737700;82;20927;-61
2021/09/25 08:55:09;;;;;;;10.15;2.45;;;;;;;16.35;100.00;98920.17;1748880;81;20932;-60
2021/09/25 08:57:39;;;;;;;10.28;2.45;;;;;;;16.32;100.00;98920.73;1768301;81;20963;-61
2021/09/25 09:00:41;;;;;;;6.60;2.70;;;;;;;16.26;100.00;98931.59;1768508;80;20975;-63
2021/09/25 09:03:34;;;;;;;7.95;2.02;;;;;;;16.22;100.00;98928.61;1751057;81;21158;-61
2021/09/25 09:06:15;;;;;;;9.38;2.80;;;;;;;16.19;100.00;98928.72;1768102;80;20963;-61
2021/09/25 09:08:46;;;;;;;9.73;2.85;;;;;;;16.17;100.00;98922.57;1769593;79;20947;-61
2021/09/25 09:11:14;;;;;;;7.60;2.83;;;;;;;16.22;100.00;98929.95;1771499;79;20989;-61
2021/09/25 09:13:43;;;;;;;11.28;2.92;;;;;;;16.31;100.00;98927.85;1768386;79;20907;-61
2021/09/25 09:16:11;;;;;;;11.95;2.37;;;;;;;16.46;100.00;98935.79;1766915;81;21537;-60
2021/09/25 09:18:41;;;;;;;11.57;2.87;;;;;;;16.62;100.00;98935.72;1776544;80;20958;-61
2021/09/25 09:21:18;;;;;;;8.25;2.15;;;;;;;16.80;100.00;98934.25;1781776;80;20927;-61
2021/09/25 09:23:53;;;;;;;8.23;2.17;;;;;;;17.02;100.00;98936.16;1771411;79;20926;-61
2021/09/25 09:26:23;;;;;;;6.47;2.22;;;;;;;17.23;100.00;98930.95;1771439;79;21407;-60
2021/09/25 09:28:52;;;;;;;11.15;2.60;;;;;;;17.42;100.00;98936.47;1781844;79;21069;-60
2021/09/25 09:31:20;;;;;;;8.90;2.37;;;;;;;17.59;100.00;98946.54;1783892;80;20892;-61
2021/09/25 09:33:53;;;;;;;5.65;1.95;;;;;;;17.90;100.00;98941.80;1780387;79;20891;-60
2021/09/25 09:36:33;;;;;;;6.97;2.22;;;;;;;17.90;100.00;98941.80;1767597;79;21424;-65
2021/09/25 09:39:16;;;;;;;9.25;2.15;;;;;;;18.06;100.00;98936.75;1771096;79;20899;-74
2021/09/25 09:41:50;;;;;;;6.03;1.80;;;;;;;18.25;100.00;98939.55;1778458;79;21383;-74
2021/09/25 09:44:20;;;;;;;7.25;2.22;;;;;;;18.40;100.00;98930.04;1784568;79;20864;-74
2021/09/25 09:46:57;;;;;;;10.10;2.37;;;;;;;18.49;100.00;98936.37;1783695;79;20875;-74
2021/09/25 09:49:28;;;;;;;7.97;2.37;;;;;;;18.58;100.00;98936.45;1783396;80;21451;-74
2021/09/25 09:52:14;;;;;;;9.98;2.55;;;;;;;18.70;100.00;98939.97;1783307;80;20939;-75
2021/09/25 09:54:44;;;;;;;7.67;2.00;;;;;;;18.79;100.00;98937.78;1784149;79;21088;-74
2021/09/25 09:57:18;;;;;;;8.30;2.33;;;;;;;18.85;100.00;98935.30;1781322;79;20884;-74
2021/09/25 09:59:47;;;;;;;6.12;1.80;;;;;;;18.90;100.00;98939.12;1779888;79;20995;-75
2021/09/25 10:02:15;;;;;;;7.00;2.17;;;;;;;18.98;100.00;98936.55;1784495;79;20931;-71
2021/09/25 10:04:43;;;;;;;11.65;2.35;;;;;;;19.08;100.00;98933.87;1776546;79;21576;-75
2021/09/25 10:07:11;;;;;;;7.37;2.37;;;;;;;19.23;100.00;98935.46;1706716;82;21074;-75
2021/09/25 10:09:40;;;;;;;9.50;2.90;;;;;;;19.38;100.00;98939.66;1724519;81;20880;-74
2021/09/25 10:12:11;;;;;;;6.78;2.33;;;;;;;19.55;100.00;98944.77;1731247;83;21004;-74
2021/09/25 10:14:41;;;;;;;6.55;2.55;;;;;;;19.68;100.00;98948.14;1731422;83;20999;-74
2021/09/25 10:17:12;;;;;;;7.97;2.10;;;;;;;19.83;100.00;98955.06;1729485;83;20962;-74
2021/09/25 10:19:43;;;;;;;8.63;2.20;;;;;;;19.94;100.00;98948.30;1719421;83;21107;-73
2021/09/25 10:22:21;;;;;;;7.78;2.22;;;;;;;20.06;100.00;98947.70;1722228;82;21480;-74
2021/09/25 10:25:01;;;;;;;7.50;2.12;;;;;;;20.17;100.00;98954.36;1699888;84;20973;-73
2021/09/25 10:27:37;;;;;;;7.92;2.47;;;;;;;20.27;100.00;98946.27;1689856;84;20870;-74
2021/09/25 10:30:07;;;;;;;7.10;2.08;;;;;;;20.39;100.00;98939.01;1770437;79;20859;-73
2021/09/25 10:32:43;;;;;;;11.00;2.00;;;;;;;20.50;100.00;98938.03;1771404;79;21159;-73
2021/09/25 10:35:15;;;;;;;6.67;2.10;;;;;;;20.62;100.00;98942.78;1771620;79;20848;-73
2021/09/25 10:37:54;;;;;;;9.80;2.20;;;;;;;20.69;97.76;98943.34;1770174;79;20890;-74
2021/09/25 10:40:27;;;;;;;19.67;3.12;;;;;;;20.72;93.25;98941.37;1762709;81;20932;-74
2021/09/25 10:43:05;;;;;;;7.75;2.42;;;;;;;20.72;90.43;98931.98;1759396;80;20857;-73
2021/09/25 10:45:37;;;;;;;10.03;2.20;;;;;;;20.71;89.84;98930.25;1756269;80;21057;-73
2021/09/25 10:48:12;;;;;;;15.03;2.40;;;;;;;20.72;87.28;98935.14;1759597;79;20888;-73
2021/09/25 10:50:56;;;;;;;10.80;2.45;;;;;;;20.77;87.98;98942.95;1751984;81;20872;-74
2021/09/25 10:53:28;;;;;;;6.58;1.95;;;;;;;20.86;87.27;98935.81;1768451;80;20940;-74
2021/09/25 10:55:57;;;;;;;6.42;2.15;;;;;;;20.86;83.26;98935.34;1765562;80;21401;-74
2021/09/25 10:58:29;;;;;;;5.97;1.87;;;;;;;20.86;81.85;98936.67;1771020;79;21053;-68
2021/09/25 11:01:07;;;;;;;7.50;2.25;;;;;;;20.86;78.30;98940.70;1760111;79;20864;-74
2021/09/25 11:03:53;;;;;;;5.83;1.57;;;;;;;20.89;79.17;98934.31;1768623;80;20970;-75
2021/09/25 11:06:41;;;;;;;6.72;2.40;;;;;;;20.97;81.30;98938.80;1757660;80;20963;-71
2021/09/25 11:09:18;;;;;;;6.58;2.27;;;;;;;21.13;83.10;98929.48;1766470;79;20947;-75
2021/09/25 11:11:50;;;;;;;7.50;2.00;;;;;;;21.25;82.28;98938.26;1762443;79;21090;-73
2021/09/25 11:14:46;;;;;;;6.30;1.90;;;;;;;21.33;80.76;98939.62;1763480;80;20963;-73
2021/09/25 11:17:19;;;;;;;8.95;2.00;;;;;;;21.41;80.45;98933.84;1765885;80;20906;-73
2021/09/25 11:20:06;;;;;;;9.60;2.10;;;;;;;21.52;81.26;98931.45;1770348;80;20905;-74
2021/09/25 11:22:38;;;;;;;14.95;2.60;;;;;;;21.67;82.52;98925.72;1771964;79;20927;-69
2021/09/25 11:25:16;;;;;;;7.25;2.00;;;;;;;21.81;79.14;98929.88;1741070;80;21383;-70
2021/09/25 11:27:46;;;;;;;6.92;2.00;;;;;;;21.87;75.60;98939.41;1774255;79;21395;-73
2021/09/25 11:30:26;;;;;;;6.97;2.10;;;;;;;21.83;70.33;98936.03;1780855;80;20872;-73
2021/09/25 11:33:00;;;;;;;8.33;2.10;;;;;;;21.78;71.49;98930.05;1763125;80;21459;-71
2021/09/25 11:35:33;;;;;;;4.22;1.75;;;;;;;21.81;71.87;98931.70;1783814;79;21423;-73
2021/09/25 11:38:08;;;;;;;7.37;1.75;;;;;;;21.81;69.90;98924.51;1784416;80;21896;-65
2021/09/25 11:40:40;;;;;;;5.20;1.85;;;;;;;21.76;67.79;98921.66;1774127;79;21427;-66
2021/09/25 11:43:14;;;;;;;12.58;2.33;;;;;;;21.72;66.84;98914.25;1774392;79;20883;-73
2021/09/25 11:45:44;;;;;;;11.75;2.17;;;;;;;21.73;67.42;98921.34;1782706;80;21359;-66
2021/09/25 11:48:14;;;;;;;17.98;2.50;;;;;;;21.78;67.94;98913.08;1774641;79;20935;-67
2021/09/25 11:50:46;;;;;;;8.20;2.27;;;;;;;21.86;69.09;98920.23;1776819;80;21490;-68
2021/09/25 11:53:17;;;;;;;13.20;2.10;;;;;;;21.93;70.55;98921.14;1780302;80;20856;-68
2021/09/25 11:55:46;;;;;;;9.13;2.22;;;;;;;21.98;69.50;98912.34;1784217;80;21430;-67
2021/09/25 11:58:17;;;;;;;7.97;2.72;;;;;;;22.02;68.88;98907.67;1784294;79;20999;-69